MSC Ines — 3EFZ3 — position and weather

sailwx.info

Track history (hours):
 
Tides and Currents Weather Stations Pressure Air Temp Water Temp Dewpoint Dewpoint Depression Visibility Wind Speed Wind Dir Waves Ship Positions

MSC Ines

Last reported at 2015-Sep-04 09:33 UTC. Time now 2015-Sep-04 10:28 UTC.
Position N 22°19' E 114°06'.

Length 349 m; draft 12.1 m.

Type: Ship (hazmat cat A). MMSI: 356112000.

Date/timePositionNaut miles runAvg speedWind from/ knotsBaromVisibWave heightAir tempDewpointWater temp
2015-Sep-04 09:33N 22°19' E 114°06'11 0.5
2015-Sep-03 12:14N 22°22' E 113°55'910.0
2015-Sep-03 11:19N 22°20' E 114°05'17 8.8
2015-Sep-03 09:23N 22°08' E 114°18'910.4
2015-Sep-03 08:32N 22°09' E 114°27'1111.1
2015-Sep-03 07:30N 22°09' E 114°40'21414.3
2015-Sep-02 16:33N 23°42' E 118°09'1716.4
2015-Sep-02 15:31N 23°53' E 118°23'2116.6
2015-Sep-02 14:17N 24°06' E 118°40'1316.6
2015-Sep-02 13:31N 24°15' E 118°50'1916.7
2015-Sep-02 12:23N 24°26' E 119°07'40815.0
2015-Sep-01 09:06N 30°20' E 122°55'1120.6
2015-Sep-01 08:33N 30°27' E 122°44'3517.5
2015-Sep-01 06:33N 30°36' E 122°05'3 2.3
2015-Sep-01 05:20N 30°38' E 122°03'0 0.0
2015-Sep-01 04:32N 30°38' E 122°03'0 0.0
2015-Sep-01 03:32N 30°38' E 122°03'0 0.0
2015-Sep-01 01:20N 30°38' E 122°03'0 0.0
2015-Sep-01 00:29N 30°38' E 122°03'0 0.0
2015-Aug-31 23:26N 30°38' E 122°03'0 0.0
2015-Aug-31 22:32N 30°38' E 122°03'0 0.0
2015-Aug-31 21:26N 30°38' E 122°03'0 0.0
2015-Aug-31 19:20N 30°38' E 122°03'0 0.0
2015-Aug-31 15:05N 30°38' E 122°03'0 0.0
2015-Aug-31 14:32N 30°38' E 122°03'0 0.0
2015-Aug-31 13:29N 30°38' E 122°03'0 0.0
2015-Aug-31 12:32N 30°38' E 122°03'0 0.0
2015-Aug-31 11:32N 30°38' E 122°03'0 0.0
2015-Aug-31 10:26N 30°38' E 122°03'0 0.0
2015-Aug-31 09:30N 30°38' E 122°03'2 2.1
2015-Aug-31 08:32N 30°36' E 122°04'1211.3
2015-Aug-31 07:27N 30°33' E 122°18'  
Track history (hours):
 
Tides and Currents Weather Stations Pressure Air Temp Water Temp Dewpoint Dewpoint Depression Visibility Wind Speed Wind Dir Waves Ship Positions

MSC Ines

Last reported at 2015-Sep-04 09:33 UTC. Time now 2015-Sep-04 10:28 UTC.
Position N 22°19' E 114°06'.

Length 349 m; draft 12.1 m.

Type: Ship (hazmat cat A). MMSI: 356112000.

Date/timePositionNaut miles runAvg speedWind from/ knotsBaromVisibWave heightAir tempDewpointWater temp
2015-Sep-04 09:33N 22°19' E 114°06'11 0.5
2015-Sep-03 12:14N 22°22' E 113°55'910.0
2015-Sep-03 11:19N 22°20' E 114°05'17 8.8
2015-Sep-03 09:23N 22°08' E 114°18'910.4
2015-Sep-03 08:32N 22°09' E 114°27'1111.1
2015-Sep-03 07:30N 22°09' E 114°40'21414.3
2015-Sep-02 16:33N 23°42' E 118°09'1716.4
2015-Sep-02 15:31N 23°53' E 118°23'2116.6
2015-Sep-02 14:17N 24°06' E 118°40'1316.6
2015-Sep-02 13:31N 24°15' E 118°50'1916.7
2015-Sep-02 12:23N 24°26' E 119°07'40815.0
2015-Sep-01 09:06N 30°20' E 122°55'1120.6
2015-Sep-01 08:33N 30°27' E 122°44'3517.5
2015-Sep-01 06:33N 30°36' E 122°05'3 2.3
2015-Sep-01 05:20N 30°38' E 122°03'0 0.0
2015-Sep-01 04:32N 30°38' E 122°03'0 0.0
2015-Sep-01 03:32N 30°38' E 122°03'0 0.0
2015-Sep-01 01:20N 30°38' E 122°03'0 0.0
2015-Sep-01 00:29N 30°38' E 122°03'0 0.0
2015-Aug-31 23:26N 30°38' E 122°03'0 0.0
2015-Aug-31 22:32N 30°38' E 122°03'0 0.0
2015-Aug-31 21:26N 30°38' E 122°03'0 0.0
2015-Aug-31 19:20N 30°38' E 122°03'0 0.0
2015-Aug-31 15:05N 30°38' E 122°03'0 0.0
2015-Aug-31 14:32N 30°38' E 122°03'0 0.0
2015-Aug-31 13:29N 30°38' E 122°03'0 0.0
2015-Aug-31 12:32N 30°38' E 122°03'0 0.0
2015-Aug-31 11:32N 30°38' E 122°03'0 0.0
2015-Aug-31 10:26N 30°38' E 122°03'0 0.0
2015-Aug-31 09:30N 30°38' E 122°03'2 2.1
2015-Aug-31 08:32N 30°36' E 122°04'1211.3
2015-Aug-31 07:27N 30°33' E 122°18'  

Dump ship's entire track history